createdAt,value
2023-03-25T00:02:06.704Z,4.63
2023-03-25T00:04:35.305Z,4.80
2023-03-25T00:07:02.623Z,4.45
2023-03-25T00:09:29.135Z,4.60
2023-03-25T00:11:56.196Z,4.55
2023-03-25T00:14:24.946Z,5.15
2023-03-25T00:16:53.195Z,4.40
2023-03-25T00:19:21.337Z,4.85
2023-03-25T00:21:50.528Z,4.75
2023-03-25T00:24:18.032Z,4.95
2023-03-25T00:26:46.243Z,4.78
2023-03-25T00:29:13.455Z,4.53
2023-03-25T00:31:41.780Z,4.60
2023-03-25T00:34:09.130Z,5.05
2023-03-25T00:36:37.715Z,5.13
2023-03-25T00:39:08.497Z,4.15
2023-03-25T00:41:37.171Z,4.45
2023-03-25T00:44:04.513Z,4.70
2023-03-25T00:46:32.512Z,4.43
2023-03-25T00:48:59.924Z,4.63
2023-03-25T00:51:27.959Z,4.50
2023-03-25T00:53:56.205Z,4.90
2023-03-25T00:56:24.890Z,4.95
2023-03-25T00:58:51.682Z,4.68
2023-03-25T01:01:23.796Z,4.78
2023-03-25T01:03:58.027Z,4.55
2023-03-25T01:06:28.840Z,4.72
2023-03-25T01:08:57.428Z,4.85
2023-03-25T01:11:28.927Z,4.53
2023-03-25T01:13:56.830Z,4.90
2023-03-25T01:16:23.797Z,4.82
2023-03-25T01:18:50.467Z,4.97
2023-03-25T01:21:17.328Z,4.57
2023-03-25T01:23:43.951Z,4.65
2023-03-25T01:26:10.754Z,4.63
2023-03-25T01:28:37.230Z,4.57
2023-03-25T01:31:05.775Z,5.75
2023-03-25T01:33:32.655Z,4.80
2023-03-25T01:36:00.328Z,4.90
2023-03-25T01:38:27.271Z,4.85
2023-03-25T01:40:54.672Z,4.68
2023-03-25T01:43:21.517Z,5.05
2023-03-25T01:45:49.108Z,4.78
2023-03-25T01:48:25.230Z,5.35
2023-03-25T01:51:00.085Z,4.68
2023-03-25T01:53:28.767Z,5.00
2023-03-25T01:55:56.598Z,4.80
2023-03-25T01:58:24.229Z,5.07
2023-03-25T02:00:51.141Z,4.70
2023-03-25T02:03:21.063Z,5.53
2023-03-25T02:06:06.975Z,4.72
2023-03-25T02:08:38.689Z,5.10
2023-03-25T02:11:06.702Z,4.80
2023-03-25T02:13:35.451Z,5.03
2023-03-25T02:16:21.677Z,4.97
2023-03-25T02:19:33.022Z,5.25
2023-03-25T02:25:09.999Z,5.28
2023-03-25T02:27:54.665Z,5.30
2023-03-25T02:30:43.165Z,5.20
2023-03-25T02:33:28.311Z,4.82
2023-03-25T02:36:15.918Z,5.75
2023-03-25T02:38:55.967Z,4.70
2023-03-25T02:41:31.694Z,5.05
2023-03-25T02:44:14.588Z,4.60
2023-03-25T02:46:50.400Z,4.97
2023-03-25T02:49:49.697Z,5.45
2023-03-25T02:52:28.873Z,4.70
2023-03-25T02:54:58.331Z,4.90
2023-03-25T02:57:28.657Z,4.80
2023-03-25T02:59:56.944Z,5.05
2023-03-25T03:02:26.082Z,4.80
2023-03-25T03:04:55.922Z,4.60
2023-03-25T03:07:31.261Z,4.75
2023-03-25T03:09:58.489Z,4.90
2023-03-25T03:12:53.170Z,4.95
2023-03-25T03:15:28.091Z,5.05
2023-03-25T03:18:38.470Z,4.63
2023-03-25T03:21:14.160Z,4.88
2023-03-25T03:23:51.451Z,4.90
2023-03-25T03:26:37.987Z,4.50
2023-03-25T03:29:15.869Z,4.78
2023-03-25T03:32:06.897Z,5.07
2023-03-25T03:34:44.794Z,5.18
2023-03-25T03:37:17.523Z,5.18
2023-03-25T03:39:46.716Z,4.63
2023-03-25T03:42:40.293Z,4.78
2023-03-25T03:45:17.929Z,4.63
2023-03-25T03:47:48.531Z,4.70
2023-03-25T03:50:20.491Z,5.28
2023-03-25T03:52:54.329Z,4.90
2023-03-25T03:55:25.076Z,4.75
2023-03-25T03:57:56.386Z,5.35
2023-03-25T04:00:27.638Z,4.80
2023-03-25T04:02:58.964Z,4.70
2023-03-25T04:05:30.836Z,4.90
2023-03-25T04:08:21.323Z,5.10
2023-03-25T04:11:09.743Z,4.90
2023-03-25T04:13:40.306Z,5.05
2023-03-25T04:16:07.669Z,5.22
2023-03-25T04:18:34.296Z,5.15
2023-03-25T04:21:01.400Z,4.95
2023-03-25T04:23:32.058Z,4.90
2023-03-25T04:26:02.745Z,5.20
2023-03-25T04:28:29.949Z,4.90
2023-03-25T04:30:57.918Z,5.07
2023-03-25T04:33:25.231Z,5.53
2023-03-25T04:35:55.034Z,5.07
2023-03-25T04:38:22.437Z,5.00
2023-03-25T04:40:49.139Z,4.60
2023-03-25T04:43:16.481Z,4.68
2023-03-25T04:45:54.609Z,4.68
2023-03-25T04:48:29.876Z,5.97
2023-03-25T04:50:59.339Z,4.93
2023-03-25T04:53:27.131Z,4.85
2023-03-25T04:55:54.423Z,4.70
2023-03-25T04:58:21.374Z,4.80
2023-03-25T05:00:52.388Z,4.90
2023-03-25T05:05:51.872Z,5.00
2023-03-25T05:08:18.569Z,5.10
2023-03-25T05:10:46.605Z,4.60
2023-03-25T05:13:13.142Z,4.53
2023-03-25T05:15:39.729Z,4.40
2023-03-25T05:18:16.231Z,4.78
2023-03-25T05:20:44.882Z,4.75
2023-03-25T05:23:16.489Z,4.72
2023-03-25T05:25:44.721Z,5.00
2023-03-25T05:28:14.002Z,4.80
2023-03-25T05:30:41.786Z,5.00
2023-03-25T05:33:12.492Z,5.30
2023-03-25T05:35:39.664Z,5.20
2023-03-25T05:38:08.223Z,4.50
2023-03-25T05:40:36.021Z,4.63
2023-03-25T05:43:03.172Z,4.78
2023-03-25T05:45:30.389Z,4.65
2023-03-25T05:47:57.046Z,4.55
2023-03-25T05:50:23.728Z,4.30
2023-03-25T05:52:51.819Z,5.45
2023-03-25T05:55:21.552Z,4.55
2023-03-25T05:57:48.675Z,4.35
2023-03-25T06:00:23.826Z,5.05
2023-03-25T06:02:51.086Z,4.70
2023-03-25T06:05:18.121Z,4.93
2023-03-25T06:07:47.399Z,4.97
2023-03-25T06:10:17.863Z,4.30
2023-03-25T06:12:46.629Z,5.25
2023-03-25T06:15:14.946Z,5.13
2023-03-25T06:17:41.589Z,5.32
2023-03-25T06:20:12.662Z,6.03
2023-03-25T06:22:40.621Z,4.70
2023-03-25T06:25:08.941Z,4.38
2023-03-25T06:27:40.374Z,4.15
2023-03-25T06:30:11.913Z,4.97
2023-03-25T06:32:38.812Z,4.47
2023-03-25T06:35:07.663Z,4.95
2023-03-25T06:37:34.328Z,5.30
2023-03-25T06:40:00.938Z,4.72
2023-03-25T06:42:28.415Z,4.70
2023-03-25T06:44:55.874Z,4.85
2023-03-25T06:47:22.850Z,4.72
2023-03-25T06:49:49.988Z,4.63
2023-03-25T06:52:16.633Z,4.15
2023-03-25T06:54:43.283Z,4.30
2023-03-25T06:57:10.225Z,5.10
2023-03-25T06:59:36.925Z,5.35
2023-03-25T07:02:03.662Z,4.38
2023-03-25T07:04:30.473Z,4.72
2023-03-25T07:06:57.894Z,4.47
2023-03-25T07:09:24.758Z,4.43
2023-03-25T07:11:51.351Z,4.15
2023-03-25T07:14:18.465Z,3.95
2023-03-25T07:16:45.115Z,4.10
2023-03-25T07:19:11.785Z,5.47
2023-03-25T07:21:38.400Z,4.38
2023-03-25T07:24:05.439Z,4.28
2023-03-25T07:26:32.008Z,5.20
2023-03-25T07:28:58.810Z,5.00
2023-03-25T07:31:25.686Z,4.82
2023-03-25T07:33:52.381Z,4.63
2023-03-25T07:36:19.116Z,5.20
2023-03-25T07:38:46.235Z,5.10
2023-03-25T07:41:13.669Z,4.47
2023-03-25T07:43:40.222Z,4.30
2023-03-25T07:46:07.042Z,4.72
2023-03-25T07:48:33.682Z,4.78
2023-03-25T07:51:00.312Z,4.70
2023-03-25T07:53:27.492Z,4.72
2023-03-25T07:55:54.164Z,5.05
2023-03-25T07:58:20.711Z,5.22
2023-03-25T08:00:47.356Z,5.22
2023-03-25T08:03:15.147Z,4.88
2023-03-25T08:05:48.504Z,4.95
2023-03-25T08:08:15.661Z,4.88
2023-03-25T08:10:47.420Z,4.57
2023-03-25T08:13:14.397Z,4.57
2023-03-25T08:15:41.013Z,5.28
2023-03-25T08:18:07.897Z,5.00
2023-03-25T08:20:35.050Z,4.60
2023-03-25T08:23:02.916Z,5.35
2023-03-25T08:25:30.590Z,5.18
2023-03-25T08:27:57.150Z,4.32
2023-03-25T08:30:23.928Z,4.78
2023-03-25T08:32:54.705Z,5.18
2023-03-25T08:35:23.810Z,4.70
2023-03-25T08:37:50.820Z,5.28
2023-03-25T08:40:17.547Z,5.60
2023-03-25T08:42:44.466Z,5.50
2023-03-25T08:45:11.920Z,5.20
2023-03-25T08:47:43.747Z,4.80
2023-03-25T08:50:10.727Z,4.85
2023-03-25T08:52:37.468Z,5.07
2023-03-25T08:55:08.728Z,6.15
2023-03-25T08:57:37.996Z,4.95
2023-03-25T09:00:14.600Z,5.38
2023-03-25T09:02:42.231Z,4.90
2023-03-25T09:05:10.865Z,5.30
2023-03-25T09:07:38.068Z,4.70
2023-03-25T09:10:07.177Z,4.95
2023-03-25T09:12:33.951Z,5.00
2023-03-25T09:15:00.923Z,5.63
2023-03-25T09:17:30.413Z,5.60
2023-03-25T09:19:57.817Z,5.43
2023-03-25T09:22:25.825Z,5.75
2023-03-25T09:24:52.389Z,5.50
2023-03-25T09:27:18.948Z,5.63
2023-03-25T09:29:45.905Z,4.95
2023-03-25T09:32:13.277Z,5.35
2023-03-25T09:34:39.799Z,5.30
2023-03-25T09:37:06.528Z,5.32
2023-03-25T09:39:33.036Z,5.57
2023-03-25T09:42:18.033Z,6.00
2023-03-25T09:45:14.673Z,5.53
2023-03-25T09:47:53.074Z,5.43
2023-03-25T09:50:20.726Z,5.22
2023-03-25T09:52:55.741Z,5.40
2023-03-25T09:55:26.527Z,5.18
2023-03-25T09:58:05.096Z,7.28
2023-03-25T10:00:31.730Z,5.22
2023-03-25T10:03:08.199Z,5.70
2023-03-25T10:05:53.450Z,5.05
2023-03-25T10:08:52.661Z,4.93
2023-03-25T10:11:31.380Z,5.13
2023-03-25T10:14:11.425Z,5.53
2023-03-25T10:17:03.066Z,5.18
2023-03-25T10:19:54.381Z,5.45
2023-03-25T10:22:28.915Z,4.50
2023-03-25T10:25:01.435Z,5.43
2023-03-25T10:27:37.590Z,5.72
2023-03-25T10:30:11.065Z,5.10
2023-03-25T10:32:44.959Z,5.78
2023-03-25T10:35:17.760Z,5.35
2023-03-25T10:37:44.699Z,6.07
2023-03-25T10:40:21.688Z,6.22
2023-03-25T10:43:23.589Z,5.43
2023-03-25T10:45:52.807Z,5.78
2023-03-25T10:48:24.570Z,6.32
2023-03-25T10:50:52.878Z,5.68
2023-03-25T10:53:24.261Z,6.38
2023-03-25T10:55:55.598Z,6.38
2023-03-25T10:58:22.461Z,5.68
2023-03-25T11:00:49.104Z,4.97
2023-03-25T11:03:23.668Z,5.20
2023-03-25T11:05:51.940Z,4.53
2023-03-25T11:08:24.442Z,4.15
2023-03-25T11:10:57.411Z,4.10
2023-03-25T11:13:29.497Z,4.75
2023-03-25T11:16:01.942Z,4.57
2023-03-25T11:18:39.865Z,4.32
2023-03-25T11:21:13.252Z,4.68
2023-03-25T11:23:45.803Z,5.10
2023-03-25T11:26:23.734Z,4.60
2023-03-25T11:29:14.636Z,4.63
2023-03-25T11:31:42.566Z,4.82
2023-03-25T11:34:12.158Z,4.80
2023-03-25T11:36:41.213Z,4.80
2023-03-25T11:39:18.737Z,4.47
2023-03-25T11:41:45.697Z,4.80
2023-03-25T11:44:23.319Z,5.35
2023-03-25T11:46:52.482Z,5.75
2023-03-25T11:49:21.846Z,5.38
2023-03-25T11:52:09.889Z,4.80
2023-03-25T11:54:36.801Z,5.28
2023-03-25T11:57:06.525Z,4.47
2023-03-25T11:59:38.190Z,5.60
2023-03-25T12:02:36.018Z,4.70
2023-03-25T12:05:12.294Z,4.95
2023-03-25T12:07:49.258Z,4.75
2023-03-25T12:10:24.974Z,5.20
2023-03-25T12:12:57.589Z,5.00
2023-03-25T12:15:46.657Z,5.40
2023-03-25T12:18:28.095Z,5.63
2023-03-25T12:21:32.050Z,5.68
2023-03-25T12:24:08.230Z,5.47
2023-03-25T12:26:45.078Z,5.82
2023-03-25T12:29:36.298Z,5.57
2023-03-25T12:32:12.138Z,4.65
2023-03-25T12:34:59.646Z,5.75
2023-03-25T12:37:32.161Z,5.40
2023-03-25T12:40:09.661Z,4.70
2023-03-25T12:43:01.105Z,4.47
2023-03-25T12:45:52.575Z,5.07
2023-03-25T12:48:45.159Z,5.20
2023-03-25T12:51:36.616Z,5.18
2023-03-25T12:54:24.989Z,4.85
2023-03-25T12:57:30.254Z,5.03
2023-03-25T13:00:09.263Z,5.30
2023-03-25T13:02:52.681Z,5.78
2023-03-25T13:05:26.210Z,5.50
2023-03-25T13:08:08.373Z,5.63
2023-03-25T13:10:37.243Z,6.20
2023-03-25T13:13:16.076Z,6.85
2023-03-25T13:15:50.308Z,5.80
2023-03-25T13:18:58.356Z,5.47
2023-03-25T13:21:29.102Z,6.55
2023-03-25T13:24:01.652Z,5.72
2023-03-25T13:26:29.821Z,6.55
2023-03-25T13:29:05.529Z,6.07
2023-03-25T13:31:37.460Z,5.97
2023-03-25T13:34:08.291Z,5.90
2023-03-25T13:39:06.691Z,5.60
2023-03-25T13:44:04.747Z,5.35
2023-03-25T13:46:41.489Z,5.22
2023-03-25T13:49:23.004Z,5.10
2023-03-25T13:51:49.581Z,5.95
2023-03-25T13:54:23.540Z,4.80
2023-03-25T13:57:27.316Z,5.53
2023-03-25T14:00:10.172Z,5.15
2023-03-25T14:03:28.442Z,4.90
2023-03-25T14:06:04.174Z,5.25
2023-03-25T14:09:04.574Z,4.82
2023-03-25T14:11:59.514Z,4.80
2023-03-25T14:14:27.155Z,4.75
2023-03-25T14:16:56.705Z,4.15
2023-03-25T14:19:31.122Z,4.95
2023-03-25T14:21:58.164Z,4.80
2023-03-25T14:24:30.110Z,4.22
2023-03-25T14:27:01.648Z,4.40
2023-03-25T14:29:28.164Z,4.40
2023-03-25T14:32:16.150Z,4.63
2023-03-25T14:34:43.818Z,4.93
2023-03-25T14:37:26.104Z,5.88
2023-03-25T14:39:56.294Z,4.15
2023-03-25T14:42:26.131Z,4.63
2023-03-25T14:44:56.534Z,4.88
2023-03-25T14:47:27.575Z,4.47
2023-03-25T14:50:01.628Z,3.83
2023-03-25T14:52:50.804Z,4.18
2023-03-25T14:55:26.433Z,4.07
2023-03-25T14:57:59.645Z,3.40
2023-03-25T15:00:34.191Z,3.60
2023-03-25T15:03:17.604Z,3.92
2023-03-25T15:05:45.360Z,4.20
2023-03-25T15:08:24.305Z,4.00
2023-03-25T15:11:04.263Z,4.45
2023-03-25T15:13:46.377Z,3.90
2023-03-25T15:16:37.934Z,4.90
2023-03-25T15:19:11.355Z,4.60
2023-03-25T15:21:56.758Z,4.18
2023-03-25T15:24:37.175Z,3.90
2023-03-25T15:27:14.613Z,4.28
2023-03-25T15:29:49.832Z,4.03
2023-03-25T15:32:31.764Z,4.28
2023-03-25T15:35:13.272Z,4.95
2023-03-25T15:37:52.707Z,4.68
2023-03-25T15:40:42.136Z,5.63
2023-03-25T15:43:17.723Z,4.97
2023-03-25T15:46:07.580Z,4.55
2023-03-25T15:48:59.798Z,4.13
2023-03-25T15:52:27.064Z,4.63
2023-03-25T15:54:56.064Z,4.50
2023-03-25T15:57:36.056Z,4.60
2023-03-25T16:00:14.376Z,4.85
2023-03-25T16:02:47.367Z,4.90
2023-03-25T16:05:15.873Z,4.45
2023-03-25T16:07:43.034Z,4.47
2023-03-25T16:10:29.263Z,4.28
2023-03-25T16:12:56.060Z,4.70
2023-03-25T16:15:27.584Z,4.55
2023-03-25T16:17:54.478Z,4.38
2023-03-25T16:20:31.934Z,4.13
2023-03-25T16:22:59.481Z,3.90
2023-03-25T16:25:47.550Z,4.78
2023-03-25T16:28:34.658Z,4.13
2023-03-25T16:31:03.018Z,4.45
2023-03-25T16:33:32.786Z,5.00
2023-03-25T16:36:02.581Z,4.18
2023-03-25T16:38:29.442Z,5.20
2023-03-25T16:41:01.492Z,5.22
2023-03-25T16:43:29.553Z,4.53
2023-03-25T16:46:01.822Z,4.43
2023-03-25T16:48:31.313Z,4.75
2023-03-25T16:51:05.728Z,4.28
2023-03-25T16:53:34.175Z,4.10
2023-03-25T16:56:10.029Z,4.20
2023-03-25T16:58:57.699Z,5.10
2023-03-25T17:01:25.558Z,5.38
2023-03-25T17:03:53.695Z,4.50
2023-03-25T17:06:31.380Z,5.88
2023-03-25T17:08:58.961Z,5.00
2023-03-25T17:11:30.613Z,4.95
2023-03-25T17:14:03.350Z,4.72
2023-03-25T17:16:31.815Z,4.85
2023-03-25T17:18:59.913Z,5.22
2023-03-25T17:21:30.324Z,5.35
2023-03-25T17:24:00.172Z,5.45
2023-03-25T17:26:31.924Z,5.00
2023-03-25T17:29:02.915Z,4.90
2023-03-25T17:34:20.803Z,4.93
2023-03-25T17:36:49.109Z,4.97
2023-03-25T17:39:21.698Z,4.70
2023-03-25T17:41:53.469Z,6.47
2023-03-25T17:44:22.521Z,5.03
2023-03-25T17:46:49.045Z,8.35
2023-03-25T17:49:17.507Z,4.68
2023-03-25T17:51:44.544Z,5.10
2023-03-25T17:54:11.240Z,4.85
2023-03-25T17:56:38.757Z,4.93
2023-03-25T17:59:09.317Z,5.10
2023-03-25T18:01:36.126Z,6.07
2023-03-25T18:04:04.477Z,5.47
2023-03-25T18:06:31.386Z,5.55
2023-03-25T18:08:59.419Z,5.07
2023-03-25T18:11:25.996Z,4.93
2023-03-25T18:13:52.545Z,5.05
2023-03-25T18:16:21.114Z,5.22
2023-03-25T18:18:47.983Z,5.05
2023-03-25T18:21:16.738Z,5.38
2023-03-25T18:23:48.607Z,4.90
2023-03-25T18:26:17.430Z,4.97
2023-03-25T18:28:45.519Z,5.45
2023-03-25T18:31:17.599Z,4.68
2023-03-25T18:33:46.299Z,6.18
2023-03-25T18:36:13.249Z,6.32
2023-03-25T18:38:39.861Z,6.25
2023-03-25T18:41:07.319Z,5.70
2023-03-25T18:43:33.870Z,4.90
2023-03-25T18:46:01.902Z,4.90
2023-03-25T18:48:29.832Z,5.00
2023-03-25T18:50:58.407Z,4.90
2023-03-25T18:53:27.501Z,5.22
2023-03-25T18:56:02.014Z,5.78
2023-03-25T18:58:33.722Z,5.68
2023-03-25T19:01:01.844Z,5.55
2023-03-25T19:03:38.754Z,4.95
2023-03-25T19:06:08.337Z,4.40
2023-03-25T19:08:35.460Z,5.10
2023-03-25T19:11:16.524Z,5.97
2023-03-25T19:13:47.296Z,5.28
2023-03-25T19:16:13.971Z,4.50
2023-03-25T19:18:40.531Z,5.63
2023-03-25T19:21:07.207Z,5.32
2023-03-25T19:23:35.272Z,5.45
2023-03-25T19:26:02.010Z,5.30
2023-03-25T19:28:29.560Z,4.28
2023-03-25T19:31:01.184Z,5.45
2023-03-25T19:33:31.520Z,5.40
2023-03-25T19:36:01.531Z,5.45
2023-03-25T19:38:29.552Z,4.83
2023-03-25T19:41:04.186Z,4.88
2023-03-25T19:43:31.068Z,5.30
2023-03-25T19:45:58.737Z,5.43
2023-03-25T19:48:25.426Z,5.65
2023-03-25T19:50:55.732Z,6.60
2023-03-25T19:53:23.299Z,5.70
2023-03-25T19:55:50.307Z,6.13
2023-03-25T19:58:20.153Z,5.55
2023-03-25T20:00:47.281Z,5.75
2023-03-25T20:03:14.052Z,5.75
2023-03-25T20:05:41.681Z,4.80
2023-03-25T20:08:09.553Z,4.20
2023-03-25T20:10:39.036Z,4.30
2023-03-25T20:13:05.999Z,4.97
2023-03-25T20:15:32.629Z,5.38
2023-03-25T20:17:59.578Z,6.72
2023-03-25T20:20:26.604Z,6.93
2023-03-25T20:22:53.367Z,6.63
2023-03-25T20:25:19.866Z,6.53
2023-03-25T20:27:46.682Z,6.97
2023-03-25T20:30:16.268Z,7.25
2023-03-25T20:32:44.360Z,7.25
2023-03-25T20:35:14.081Z,8.82
2023-03-25T20:37:42.090Z,7.78
2023-03-25T20:40:11.719Z,8.13
2023-03-25T20:42:40.501Z,6.70
2023-03-25T20:45:08.508Z,7.65
2023-03-25T20:47:35.128Z,6.05
2023-03-25T20:50:01.745Z,5.53
2023-03-25T20:52:28.923Z,5.53
2023-03-25T20:54:55.823Z,5.03
2023-03-25T20:57:22.749Z,5.07
2023-03-25T20:59:49.376Z,4.78
2023-03-25T21:02:17.023Z,4.75
2023-03-25T21:04:43.611Z,4.30
2023-03-25T21:07:10.326Z,5.03
2023-03-25T21:09:37.417Z,4.95
2023-03-25T21:12:04.361Z,4.85
2023-03-25T21:14:31.210Z,5.13
2023-03-25T21:16:57.911Z,4.90
2023-03-25T21:19:25.185Z,5.13
2023-03-25T21:21:51.710Z,5.10
2023-03-25T21:24:21.678Z,5.03
2023-03-25T21:26:49.244Z,5.00
2023-03-25T21:29:15.804Z,5.40
2023-03-25T21:31:42.555Z,4.95
2023-03-25T21:34:09.338Z,4.85
2023-03-25T21:36:36.091Z,4.10
2023-03-25T21:39:04.444Z,4.32
2023-03-25T21:41:31.220Z,3.88
2023-03-25T21:43:57.941Z,3.20
2023-03-25T21:46:27.465Z,3.53
2023-03-25T21:48:58.339Z,3.30
2023-03-25T21:51:26.677Z,5.93
2023-03-25T21:53:53.297Z,3.63
2023-03-25T21:56:24.568Z,4.22
2023-03-25T21:58:51.648Z,3.42
2023-03-25T22:01:23.106Z,3.63
2023-03-25T22:03:54.262Z,3.85
2023-03-25T22:06:23.536Z,3.70
2023-03-25T22:08:50.597Z,4.13
2023-03-25T22:11:22.321Z,3.90
2023-03-25T22:13:49.880Z,3.72
2023-03-25T22:16:19.128Z,3.63
2023-03-25T22:18:46.405Z,3.70
2023-03-25T22:21:12.882Z,3.95
2023-03-25T22:23:43.168Z,3.97
2023-03-25T22:26:11.024Z,4.10
2023-03-25T22:28:38.264Z,7.35
2023-03-25T22:31:18.570Z,4.00
2023-03-25T22:33:46.058Z,3.75
2023-03-25T22:36:15.556Z,4.00
2023-03-25T22:38:44.513Z,3.60
2023-03-25T22:41:12.697Z,3.55
2023-03-25T22:43:39.413Z,3.40
2023-03-25T22:46:06.523Z,4.07
2023-03-25T22:48:33.195Z,3.80
2023-03-25T22:51:00.503Z,3.63
2023-03-25T22:53:27.587Z,3.78
2023-03-25T22:55:56.182Z,3.38
2023-03-25T22:58:25.183Z,3.90
2023-03-25T23:00:52.515Z,3.70
2023-03-25T23:03:19.939Z,3.55
2023-03-25T23:06:02.854Z,3.35
2023-03-25T23:08:32.528Z,3.22
2023-03-25T23:11:00.442Z,3.40
2023-03-25T23:13:28.027Z,3.45
2023-03-25T23:16:02.910Z,3.47
2023-03-25T23:18:29.831Z,4.15
2023-03-25T23:20:56.949Z,3.22
2023-03-25T23:23:24.586Z,3.83
2023-03-25T23:26:19.772Z,4.00
2023-03-25T23:28:48.696Z,4.35
2023-03-25T23:31:28.473Z,4.65
2023-03-25T23:33:59.878Z,4.82
2023-03-25T23:36:28.587Z,4.57
2023-03-25T23:38:55.093Z,4.72
2023-03-25T23:41:22.975Z,6.57
2023-03-25T23:43:50.642Z,5.40
2023-03-25T23:46:18.302Z,5.90
2023-03-25T23:48:45.001Z,6.20
2023-03-25T23:51:17.557Z,6.20
2023-03-25T23:53:46.802Z,6.75
2023-03-25T23:56:14.774Z,6.03
2023-03-25T23:58:41.729Z,6.10
